メインページ
METAR-TAF:

METAR-TAF

空港 :

サンフアン, プエルトリコ, アメリカ合衆国

ルイス・ムニョス・マリン国際空港

緯度: 18-27N, 経度: 066-00W, 海抜: 3m

現時点の気象観測

当レポートは1時間11分前の20:56(UTC)に作成
東/北東の風 15kt、最大22ktの突風を伴う
気温 26°C
湿度 74%
気圧 1020 hPa
視程: 16.1km
高度2700ftの雲はほとんどない
高度3600ftの雲は散在している
高度6000ftの雲は散在している

METAR: TJSJ 192056Z 07015G22KT 10SM FEW027 SCT036 SCT060 26/21 A3012 RMK AO2 RAB00E09 SLP199 VCSH SE P0000 60000 T02560206 55005 $

時間: 18:07 (22:07 UTC)

予報

当レポートは4時間47分前の17:20(UTC)に作成
予報は19日の 18時(UTC)から 20日の 18時(UTC)まで有効
の風 20kt、最大30ktの突風を伴う
視程: 10km
高度3000ftの雲はほとんどない
高度5000ftの雲は散在している
19日の 2300時(UTC)から
の風 12kt
視程: 10km
高度4000ftの雲はほとんどない
20日の 1300時(UTC)から
の風 20kt、最大30ktの突風を伴う
視程: 10km
高度3000ftの雲はほとんどない
高度5000ftの雲は散在している

TAF: TJSJ 191720Z 1918/2018 08020G30KT P6SM FEW030 SCT050 FM192300 08012KT P6SM FEW040 FM201300 08020G30KT P6SM FEW030 SCT050

4,000以上の空港の気象観測と天気予報(METAR報とTAF報)

利用可能な観測所は地図上に黄色い丸と赤い丸で示す。

丸の上にカーソルを重ねると観測所名を参照できる。

次にクリックすると気象観測と天気予報を参照できる。

マップの切り替え:黒色「×」印の緑ボタンをクリックして拡大、「-」印の緑ボタンをクリックして縮小、緑色の三角印をクリックして隣りの地図に切り替え


METAR-TAF: